Time;durP1;ratioP1;P1;durP2;ratioP2;P2;SDS_P1;SDS_P2;PMS_P1;PMS_P2;Temp;Humidity;BMP_temperature;BMP_pressure;BME280_temperature;BME280_humidity;BME280_pressure;Samples;Min_cycle;Max_cycle;Signal;HPM_P1;HPM_P2
2022/09/09 00:01:30;;;;;;;4.43;3.25;;;17.80;99.90;;;;;;5040651;28;20026;-66
2022/09/09 00:04:08;;;;;;;3.40;2.42;;;17.80;99.90;;;;;;5049083;28;20021;-66
2022/09/09 00:07:03;;;;;;;2.35;2.15;;;17.80;99.90;;;;;;5039984;28;20041;-67
2022/09/09 00:09:37;;;;;;;3.22;1.90;;;17.80;99.90;;;;;;5029856;28;20433;-66
2022/09/09 00:12:22;;;;;;;3.58;1.80;;;17.80;99.90;;;;;;5033375;28;20033;-67
2022/09/09 00:14:56;;;;;;;3.05;2.03;;;17.70;99.90;;;;;;5041749;28;20021;-67
2022/09/09 00:18:01;;;;;;;3.90;2.00;;;17.70;99.90;;;;;;5031960;28;20049;-66
2022/09/09 00:20:42;;;;;;;2.17;1.90;;;17.60;99.90;;;;;;5025562;28;20088;-66
2022/09/09 00:23:30;;;;;;;3.90;1.60;;;17.60;99.90;;;;;;5039314;28;20492;-66
2022/09/09 00:26:09;;;;;;;2.35;1.70;;;17.50;99.90;;;;;;5047839;28;20048;-66
2022/09/09 00:29:01;;;;;;;2.67;2.10;;;17.50;99.90;;;;;;5040340;28;20025;-66
2022/09/09 00:31:30;;;;;;;6.47;2.25;;;17.40;99.90;;;;;;5036844;28;20030;-66
2022/09/09 00:34:02;;;;;;;3.08;1.60;;;17.50;99.90;;;;;;5048168;28;20371;-66
2022/09/09 00:36:31;;;;;;;2.50;1.60;;;17.40;99.90;;;;;;5033318;28;20022;-66
2022/09/09 00:39:00;;;;;;;3.83;1.50;;;17.40;99.90;;;;;;5035062;28;20029;-66
2022/09/09 00:41:25;;;;;;;6.93;1.77;;;17.30;99.90;;;;;;5031534;28;20371;-66
2022/09/09 00:44:22;;;;;;;8.00;2.10;;;17.30;99.90;;;;;;5046708;28;20095;-67
2022/09/09 00:47:28;;;;;;;5.78;1.70;;;17.30;99.90;;;;;;5037891;28;20091;-66
2022/09/09 00:50:03;;;;;;;3.67;1.65;;;17.40;99.90;;;;;;5047275;28;20040;-66
2022/09/09 00:52:52;;;;;;;5.03;1.80;;;17.30;99.90;;;;;;5038884;28;20029;-67
2022/09/09 00:55:32;;;;;;;5.00;1.95;;;17.30;99.90;;;;;;5037730;28;20234;-66
2022/09/09 00:57:57;;;;;;;4.40;1.40;;;17.30;99.90;;;;;;5047626;28;20405;-66
2022/09/09 01:00:27;;;;;;;7.35;1.83;;;17.30;99.90;;;;;;5038249;28;20025;-66
2022/09/09 01:03:25;;;;;;;5.53;1.38;;;17.30;99.90;;;;;;5039111;28;20017;-66
2022/09/09 01:06:16;;;;;;;3.78;1.40;;;17.30;99.90;;;;;;5029422;28;20109;-69
2022/09/09 01:08:48;;;;;;;3.47;1.85;;;17.30;99.90;;;;;;5031234;28;20512;-67
2022/09/09 01:11:36;;;;;;;6.40;1.85;;;17.30;99.90;;;;;;5029949;28;20017;-66
2022/09/09 01:14:36;;;;;;;3.72;1.67;;;17.30;99.90;;;;;;5030534;28;20056;-66
2022/09/09 01:17:23;;;;;;;3.83;1.67;;;17.20;99.90;;;;;;5029435;28;20505;-67
2022/09/09 01:20:13;;;;;;;3.30;1.60;;;17.30;99.90;;;;;;5031027;28;20064;-67
2022/09/09 01:22:58;;;;;;;5.20;1.98;;;17.20;99.90;;;;;;5029907;28;20025;-67
2022/09/09 01:25:49;;;;;;;3.75;1.67;;;17.20;99.90;;;;;;5031707;28;20032;-66
2022/09/09 01:28:20;;;;;;;5.03;2.00;;;17.20;99.90;;;;;;5030437;28;20029;-67
2022/09/09 01:30:46;;;;;;;4.63;1.80;;;17.20;99.90;;;;;;5029745;28;20478;-66
2022/09/09 01:33:17;;;;;;;5.28;1.80;;;17.20;99.90;;;;;;5030284;28;20028;-66
2022/09/09 01:35:54;;;;;;;6.38;2.00;;;17.10;99.90;;;;;;5031752;28;20022;-66
2022/09/09 01:38:20;;;;;;;6.10;2.05;;;17.10;99.90;;;;;;5028256;28;20029;-68
2022/09/09 01:40:46;;;;;;;9.57;1.85;;;17.00;99.90;;;;;;5028553;28;20532;-67
2022/09/09 01:43:13;;;;;;;10.60;1.90;;;17.00;99.90;;;;;;5030327;28;20025;-67
2022/09/09 01:45:40;;;;;;;4.50;2.03;;;17.00;99.90;;;;;;5031497;28;20068;-66
2022/09/09 01:48:06;;;;;;;6.97;2.20;;;17.00;99.90;;;;;;5030207;28;20398;-67
2022/09/09 01:50:32;;;;;;;7.05;2.22;;;17.10;99.90;;;;;;5031229;28;20010;-67
2022/09/09 01:52:59;;;;;;;7.07;1.60;;;17.10;99.90;;;;;;5031788;28;20610;-66
2022/09/09 01:55:39;;;;;;;5.72;1.73;;;17.10;99.90;;;;;;5029090;28;20024;-67
2022/09/09 01:58:11;;;;;;;4.45;1.90;;;17.00;99.90;;;;;;5030371;28;20529;-67
2022/09/09 02:00:44;;;;;;;4.85;1.67;;;16.90;99.90;;;;;;5031678;28;20025;-66
2022/09/09 02:03:28;;;;;;;5.88;2.30;;;16.90;99.90;;;;;;5030929;28;20040;-66
2022/09/09 02:05:54;;;;;;;5.82;2.20;;;16.80;99.90;;;;;;5029818;28;20029;-67
2022/09/09 02:08:33;;;;;;;9.65;2.28;;;16.80;99.90;;;;;;5031484;28;20378;-66
2022/09/09 02:11:12;;;;;;;5.68;2.10;;;16.90;99.90;;;;;;5031202;28;20040;-67
2022/09/09 02:13:39;;;;;;;4.72;1.58;;;16.90;99.90;;;;;;5031556;28;20048;-67
2022/09/09 02:16:12;;;;;;;8.10;2.30;;;16.90;99.90;;;;;;5031449;28;20073;-67
2022/09/09 02:19:16;;;;;;;6.13;1.30;;;16.80;99.90;;;;;;5034312;28;20141;-70
2022/09/09 02:21:45;;;;;;;6.07;2.10;;;16.70;99.90;;;;;;5034695;28;20378;-67
2022/09/09 02:24:14;;;;;;;5.47;1.80;;;16.80;99.90;;;;;;5034519;28;20025;-66
2022/09/09 02:26:44;;;;;;;6.63;2.08;;;16.80;99.90;;;;;;5035004;28;20025;-67
2022/09/09 02:29:16;;;;;;;5.68;1.70;;;16.90;99.90;;;;;;5034844;28;20026;-66
2022/09/09 02:31:44;;;;;;;7.00;1.70;;;16.80;99.90;;;;;;5034549;28;20037;-67
2022/09/09 02:34:12;;;;;;;4.35;1.50;;;16.80;99.90;;;;;;5033966;28;20029;-67
2022/09/09 02:36:41;;;;;;;6.75;1.95;;;16.80;99.90;;;;;;5034653;28;20025;-67
2022/09/09 02:39:09;;;;;;;5.13;1.63;;;16.70;99.90;;;;;;5032217;28;20486;-67
2022/09/09 02:41:37;;;;;;;5.55;2.13;;;16.70;99.90;;;;;;5034463;28;20025;-68
2022/09/09 02:44:10;;;;;;;6.70;2.33;;;16.70;99.90;;;;;;5033770;28;20032;-67
2022/09/09 02:46:57;;;;;;;6.97;2.10;;;16.60;99.90;;;;;;5034529;28;20071;-66
2022/09/09 02:49:35;;;;;;;4.22;1.50;;;16.70;99.90;;;;;;5034714;28;20033;-67
2022/09/09 02:52:11;;;;;;;3.63;1.92;;;16.60;99.90;;;;;;5034744;28;20512;-67
2022/09/09 02:54:40;;;;;;;9.55;2.40;;;16.70;99.90;;;;;;5034651;28;20469;-66
2022/09/09 02:57:27;;;;;;;5.03;2.42;;;16.70;99.90;;;;;;5034591;28;20029;-67
2022/09/09 02:59:53;;;;;;;7.60;2.10;;;16.80;99.90;;;;;;5035046;28;20018;-66
2022/09/09 03:02:19;;;;;;;6.00;1.83;;;16.70;99.90;;;;;;5034339;28;20112;-66
2022/09/09 03:04:50;;;;;;;5.32;2.00;;;16.70;99.90;;;;;;5034265;28;20037;-67
2022/09/09 03:07:16;;;;;;;6.43;1.90;;;16.70;99.90;;;;;;5014742;28;20030;-66
2022/09/09 03:09:43;;;;;;;5.93;1.92;;;16.70;99.90;;;;;;5014782;28;20377;-66
2022/09/09 03:12:10;;;;;;;8.18;2.42;;;16.80;99.90;;;;;;5022294;28;20036;-67
2022/09/09 03:14:37;;;;;;;10.30;2.35;;;16.80;99.90;;;;;;5034155;28;20029;-67
2022/09/09 03:17:05;;;;;;;4.63;2.00;;;16.80;99.90;;;;;;5034080;28;20029;-67
2022/09/09 03:19:31;;;;;;;8.30;2.30;;;16.80;99.90;;;;;;5034030;28;20041;-66
2022/09/09 03:21:58;;;;;;;5.35;2.33;;;16.70;99.90;;;;;;5034408;28;20021;-66
2022/09/09 03:24:24;;;;;;;8.90;2.42;;;16.70;99.90;;;;;;5034064;28;20112;-67
2022/09/09 03:26:50;;;;;;;10.45;2.60;;;16.70;99.90;;;;;;5032887;28;20528;-66
2022/09/09 03:29:17;;;;;;;6.57;2.45;;;16.70;99.90;;;;;;5034213;28;20029;-66
2022/09/09 03:31:43;;;;;;;7.75;2.45;;;16.60;99.90;;;;;;5034036;28;20104;-66
2022/09/09 03:34:09;;;;;;;10.13;2.65;;;16.60;99.90;;;;;;5034103;28;20133;-66
2022/09/09 03:36:35;;;;;;;10.38;2.88;;;16.60;99.90;;;;;;5033857;28;20494;-67
2022/09/09 03:39:02;;;;;;;6.93;2.65;;;16.60;99.90;;;;;;5034251;28;20076;-67
2022/09/09 03:41:28;;;;;;;9.13;2.45;;;16.60;99.90;;;;;;5033540;28;20109;-66
2022/09/09 03:43:54;;;;;;;8.68;2.65;;;16.40;99.90;;;;;;5033956;28;20026;-69
2022/09/09 03:46:22;;;;;;;7.18;2.33;;;16.50;99.90;;;;;;5027979;28;20505;-68
2022/09/09 03:48:48;;;;;;;5.07;2.22;;;16.60;99.90;;;;;;5018164;28;20036;-66
2022/09/09 03:51:15;;;;;;;5.80;2.47;;;16.50;99.90;;;;;;5015719;28;20037;-68
2022/09/09 03:53:41;;;;;;;6.32;2.28;;;16.60;99.90;;;;;;5028930;28;20021;-67
2022/09/09 03:56:08;;;;;;;9.10;2.65;;;16.60;99.90;;;;;;5013692;28;20037;-67
2022/09/09 03:58:35;;;;;;;9.20;2.85;;;16.70;99.90;;;;;;5013771;28;20044;-69
2022/09/09 04:01:06;;;;;;;7.13;2.90;;;16.70;99.90;;;;;;5030562;28;20037;-67
2022/09/09 04:03:32;;;;;;;7.15;2.28;;;16.70;99.90;;;;;;5033285;28;20355;-69
2022/09/09 04:05:59;;;;;;;9.30;2.97;;;16.60;99.90;;;;;;5032853;28;20096;-67
2022/09/09 04:08:26;;;;;;;7.10;2.55;;;16.60;99.90;;;;;;5033052;28;20076;-67
2022/09/09 04:10:52;;;;;;;7.63;2.53;;;16.50;99.90;;;;;;5033189;28;20029;-67
2022/09/09 04:13:19;;;;;;;11.43;2.63;;;16.40;99.90;;;;;;5032701;28;20057;-67
2022/09/09 04:15:52;;;;;;;9.80;3.20;;;16.50;99.90;;;;;;5033050;28;20060;-67
2022/09/09 04:18:17;;;;;;;;;;;16.60;99.90;;;;;;5033247;28;20043;-67
2022/09/09 04:20:45;;;;;;;6.50;2.88;;;16.70;99.90;;;;;;5033409;28;19905;-67
2022/09/09 04:23:11;;;;;;;7.63;2.75;;;16.80;99.90;;;;;;5032479;28;20049;-67
2022/09/09 04:25:37;;;;;;;10.32;2.92;;;16.80;99.90;;;;;;5033120;28;20026;-67
2022/09/09 04:28:03;;;;;;;9.30;2.55;;;16.80;99.90;;;;;;5032619;28;20030;-67
2022/09/09 04:30:29;;;;;;;7.88;2.90;;;16.70;99.90;;;;;;5031452;28;20040;-67
2022/09/09 04:32:54;;;;;;;11.07;2.75;;;16.80;99.90;;;;;;5033201;28;20025;-67
2022/09/09 04:35:20;;;;;;;9.57;2.97;;;16.80;99.90;;;;;;5032750;28;20044;-67
2022/09/09 04:37:46;;;;;;;11.25;2.83;;;16.80;99.90;;;;;;5032641;28;20046;-67
2022/09/09 04:40:11;;;;;;;10.57;2.72;;;16.80;99.90;;;;;;5032689;28;20037;-67
2022/09/09 04:42:39;;;;;;;10.48;2.95;;;16.90;99.90;;;;;;5031588;28;20082;-67
2022/09/09 04:45:06;;;;;;;8.20;3.05;;;16.90;99.90;;;;;;5032354;28;20036;-66
2022/09/09 04:47:32;;;;;;;9.02;2.53;;;16.80;99.90;;;;;;5032978;28;20021;-66
2022/09/09 04:49:57;;;;;;;10.05;2.78;;;16.80;99.90;;;;;;5032422;28;20076;-67
2022/09/09 04:52:23;;;;;;;9.57;3.05;;;16.80;99.90;;;;;;5031941;28;20351;-67
2022/09/09 04:54:48;;;;;;;8.27;2.35;;;16.90;99.90;;;;;;5032315;28;20387;-67
2022/09/09 04:57:14;;;;;;;6.35;2.60;;;16.80;99.90;;;;;;5032018;28;20086;-67
2022/09/09 04:59:40;;;;;;;8.85;2.42;;;16.80;99.90;;;;;;5032409;28;20385;-67
2022/09/09 05:02:06;;;;;;;5.50;2.40;;;16.80;99.90;;;;;;5032499;28;20026;-67
2022/09/09 05:04:32;;;;;;;6.35;2.80;;;16.80;99.90;;;;;;5032425;28;20439;-66
2022/09/09 05:06:59;;;;;;;7.63;1.98;;;16.80;99.90;;;;;;5032474;28;20018;-67
2022/09/09 05:09:24;;;;;;;7.32;2.20;;;16.80;99.90;;;;;;5031185;28;20017;-67
2022/09/09 05:11:51;;;;;;;10.52;2.50;;;16.70;99.90;;;;;;5031503;28;20091;-67
2022/09/09 05:14:17;;;;;;;10.13;2.83;;;16.80;99.90;;;;;;5031900;28;20032;-67
2022/09/09 05:16:45;;;;;;;9.80;2.42;;;16.80;99.90;;;;;;5032408;28;20056;-66
2022/09/09 05:19:11;;;;;;;7.05;2.53;;;16.80;99.90;;;;;;5031385;28;20036;-66
2022/09/09 05:21:37;;;;;;;12.63;3.17;;;16.80;99.90;;;;;;5032530;28;20028;-67
2022/09/09 05:24:03;;;;;;;8.70;2.70;;;16.80;99.90;;;;;;5029809;28;20034;-67
2022/09/09 05:26:32;;;;;;;9.32;2.97;;;16.70;99.90;;;;;;5030581;28;20029;-67
2022/09/09 05:28:58;;;;;;;5.88;2.30;;;16.70;99.90;;;;;;5030971;28;20470;-67
2022/09/09 05:31:28;;;;;;;8.85;2.05;;;16.60;99.90;;;;;;5031735;28;20034;-67
2022/09/09 05:33:54;;;;;;;7.43;2.53;;;16.60;99.90;;;;;;5032540;28;20071;-66
2022/09/09 05:36:22;;;;;;;6.85;2.08;;;16.60;99.90;;;;;;5032313;28;20107;-66
2022/09/09 05:38:49;;;;;;;8.15;2.88;;;16.70;99.90;;;;;;5032180;28;20048;-66
2022/09/09 05:41:17;;;;;;;7.20;2.08;;;16.70;99.90;;;;;;5031942;28;20026;-67
2022/09/09 05:43:45;;;;;;;8.25;2.30;;;16.60;99.90;;;;;;5032129;28;20026;-67
2022/09/09 05:46:13;;;;;;;10.82;2.88;;;16.60;99.90;;;;;;5029176;28;20037;-66
2022/09/09 05:48:46;;;;;;;10.80;2.25;;;16.60;99.90;;;;;;5016297;28;20025;-67
2022/09/09 05:51:15;;;;;;;11.07;2.67;;;16.50;99.90;;;;;;5034680;28;20100;-66
2022/09/09 05:53:41;;;;;;;10.23;2.40;;;16.50;99.90;;;;;;5033887;28;20493;-67
2022/09/09 05:56:12;;;;;;;8.20;3.08;;;16.50;99.90;;;;;;5032749;28;20048;-67
2022/09/09 05:58:38;;;;;;;7.38;2.80;;;16.50;99.90;;;;;;5035888;28;20129;-67
2022/09/09 06:01:25;;;;;;;9.80;2.42;;;16.50;99.90;;;;;;5034401;28;20017;-67
2022/09/09 06:03:52;;;;;;;8.45;2.70;;;16.40;99.90;;;;;;5035332;28;20025;-67
2022/09/09 06:06:28;;;;;;;7.82;2.60;;;16.50;99.90;;;;;;5035287;28;20022;-67
2022/09/09 06:08:57;;;;;;;8.13;3.20;;;16.50;99.90;;;;;;5035096;28;20021;-67
2022/09/09 06:11:26;;;;;;;10.57;2.80;;;16.50;99.90;;;;;;5035227;28;20021;-67
2022/09/09 06:13:53;;;;;;;10.32;2.83;;;16.40;99.90;;;;;;5024879;28;20037;-67
2022/09/09 06:16:23;;;;;;;11.18;3.25;;;16.40;99.90;;;;;;5053211;28;20083;-67
2022/09/09 06:18:50;;;;;;;10.88;2.90;;;16.40;99.90;;;;;;5032141;28;20057;-67
2022/09/09 06:21:21;;;;;;;11.68;2.70;;;16.40;99.90;;;;;;5033550;28;20108;-67
2022/09/09 06:23:48;;;;;;;9.15;2.67;;;16.40;99.90;;;;;;5034746;28;20501;-67
2022/09/09 06:26:19;;;;;;;10.80;3.35;;;16.50;99.90;;;;;;5035066;28;20030;-68
2022/09/09 06:28:49;;;;;;;12.35;3.60;;;16.50;99.90;;;;;;5028769;28;20029;-66
2022/09/09 06:31:22;;;;;;;11.32;2.83;;;16.50;99.90;;;;;;5032286;28;20029;-67
2022/09/09 06:33:49;;;;;;;8.50;2.70;;;16.50;99.90;;;;;;5034034;28;20030;-67
2022/09/09 06:36:20;;;;;;;12.35;3.22;;;16.50;99.90;;;;;;5034767;28;20018;-67
2022/09/09 06:38:46;;;;;;;12.82;3.85;;;16.60;99.90;;;;;;5033462;28;20088;-67
2022/09/09 06:41:14;;;;;;;16.65;3.22;;;16.50;99.90;;;;;;5034141;28;20021;-68
2022/09/09 06:43:39;;;;;;;13.60;3.53;;;16.60;99.90;;;;;;5033987;28;20029;-68
2022/09/09 06:46:11;;;;;;;13.30;2.97;;;16.70;99.90;;;;;;5034912;28;20045;-66
2022/09/09 06:48:40;;;;;;;12.97;3.40;;;16.70;99.90;;;;;;5033235;28;20041;-67
2022/09/09 06:51:18;;;;;;;9.57;3.22;;;16.70;99.90;;;;;;5034411;28;20394;-67
2022/09/09 06:53:45;;;;;;;12.07;3.50;;;16.70;99.90;;;;;;5034539;28;20036;-67
2022/09/09 06:56:11;;;;;;;9.45;2.63;;;16.70;99.90;;;;;;5034626;28;20029;-66
2022/09/09 06:58:46;;;;;;;11.88;3.20;;;16.80;99.90;;;;;;5033480;28;20044;-66
2022/09/09 07:01:18;;;;;;;13.68;3.40;;;16.90;99.90;;;;;;5033014;28;20025;-67
2022/09/09 07:03:47;;;;;;;13.30;3.00;;;16.90;99.90;;;;;;5033238;28;20045;-67
2022/09/09 07:06:23;;;;;;;14.13;2.83;;;16.90;99.90;;;;;;5034436;28;20092;-67
2022/09/09 07:08:53;;;;;;;8.48;3.10;;;16.90;99.90;;;;;;5034116;28;20183;-67
2022/09/09 07:11:25;;;;;;;14.98;3.65;;;17.00;99.90;;;;;;5034516;28;20021;-68
2022/09/09 07:13:51;;;;;;;14.57;3.30;;;17.10;99.90;;;;;;5034257;28;20037;-68
2022/09/09 07:16:18;;;;;;;15.73;3.28;;;17.00;99.90;;;;;;5034787;28;20021;-67
2022/09/09 07:18:44;;;;;;;14.68;3.20;;;17.10;99.90;;;;;;5033483;28;20095;-68
2022/09/09 07:21:14;;;;;;;9.65;3.00;;;17.30;99.90;;;;;;5032649;28;20030;-69
2022/09/09 07:23:40;;;;;;;13.93;3.75;;;17.40;99.90;;;;;;5033260;28;20084;-67
2022/09/09 07:26:12;;;;;;;13.20;3.90;;;17.40;99.90;;;;;;5034033;28;20104;-67
2022/09/09 07:28:38;;;;;;;7.88;2.90;;;17.50;99.90;;;;;;5034142;28;20034;-67
2022/09/09 07:31:04;;;;;;;10.02;3.33;;;17.60;99.90;;;;;;5032280;28;20749;-67
2022/09/09 07:33:33;;;;;;;14.60;3.85;;;17.70;99.90;;;;;;5033859;28;20398;-66
2022/09/09 07:36:27;;;;;;;7.68;3.13;;;17.70;99.90;;;;;;5029361;28;20017;-67
2022/09/09 07:38:59;;;;;;;12.68;2.67;;;17.70;99.90;;;;;;5026234;28;20037;-67
2022/09/09 07:41:34;;;;;;;15.27;3.15;;;17.80;99.90;;;;;;5033741;28;20025;-67
2022/09/09 07:44:03;;;;;;;7.88;2.58;;;17.80;99.90;;;;;;5033788;28;20061;-67
2022/09/09 07:46:29;;;;;;;14.07;2.65;;;17.60;99.90;;;;;;5017776;28;20026;-67
2022/09/09 07:48:56;;;;;;;9.45;2.60;;;17.70;99.90;;;;;;5014153;28;20025;-66
2022/09/09 07:51:30;;;;;;;10.35;2.50;;;17.90;99.90;;;;;;5033031;28;20419;-67
2022/09/09 07:53:58;;;;;;;9.48;2.70;;;17.90;99.90;;;;;;5033385;28;20425;-67
2022/09/09 07:56:25;;;;;;;6.68;2.40;;;18.00;99.90;;;;;;5033389;28;20371;-66
2022/09/09 07:58:52;;;;;;;12.40;3.17;;;18.10;99.90;;;;;;5033780;28;20478;-67
2022/09/09 08:01:27;;;;;;;7.82;2.25;;;18.10;99.90;;;;;;5033142;28;20108;-66
2022/09/09 08:04:01;;;;;;;7.43;2.25;;;18.00;99.90;;;;;;5033789;28;20083;-67
2022/09/09 08:06:28;;;;;;;13.30;2.75;;;18.10;99.90;;;;;;5033855;28;20021;-67
2022/09/09 08:08:54;;;;;;;11.52;2.95;;;18.00;99.90;;;;;;5033091;28;20029;-68
2022/09/09 08:11:22;;;;;;;11.15;2.72;;;18.10;99.90;;;;;;5033039;28;20394;-67
2022/09/09 08:13:49;;;;;;;7.82;2.15;;;18.00;99.90;;;;;;5032292;28;20116;-67
2022/09/09 08:16:18;;;;;;;6.85;2.30;;;18.10;99.90;;;;;;5033369;28;20096;-67
2022/09/09 08:18:44;;;;;;;9.80;2.47;;;18.00;99.90;;;;;;5032842;28;20469;-67
2022/09/09 08:21:17;;;;;;;9.13;3.20;;;18.00;99.90;;;;;;5032453;28;20033;-68
2022/09/09 08:23:43;;;;;;;;;;;18.10;99.90;;;;;;5032721;28;20481;-68
2022/09/09 08:26:13;;;;;;;8.30;3.05;;;18.20;99.90;;;;;;5032483;28;19912;-67
2022/09/09 08:28:39;;;;;;;4.72;2.78;;;18.20;99.90;;;;;;5032795;28;20031;-68
2022/09/09 08:31:17;;;;;;;8.98;2.10;;;18.20;99.90;;;;;;5033011;28;20051;-68
2022/09/09 08:33:45;;;;;;;7.00;1.63;;;18.10;99.90;;;;;;5030281;28;20072;-68
2022/09/09 08:36:15;;;;;;;8.93;2.40;;;18.20;99.90;;;;;;5031860;28;20018;-70
2022/09/09 08:38:41;;;;;;;11.57;2.42;;;18.20;99.90;;;;;;5028914;28;20037;-66
2022/09/09 08:41:10;;;;;;;8.85;2.10;;;18.10;99.90;;;;;;5023100;28;20631;-72
2022/09/09 08:43:35;;;;;;;11.00;2.70;;;18.20;99.90;;;;;;5016313;28;20017;-71
2022/09/09 08:46:17;;;;;;;6.93;1.95;;;18.30;99.90;;;;;;5033864;28;20613;-71
2022/09/09 08:48:43;;;;;;;10.27;2.08;;;18.30;99.90;;;;;;5031510;28;20009;-68
2022/09/09 08:51:08;;;;;;;7.30;2.00;;;18.30;99.90;;;;;;5034795;28;20032;-67
2022/09/09 08:53:43;;;;;;;7.78;2.17;;;18.20;99.90;;;;;;5030164;28;20022;-71
2022/09/09 08:56:16;;;;;;;8.77;2.22;;;18.30;99.90;;;;;;5030335;28;20477;-67
2022/09/09 08:58:53;;;;;;;11.40;2.03;;;18.30;99.90;;;;;;5031036;28;20047;-66
2022/09/09 09:01:40;;;;;;;7.20;1.90;;;18.20;99.90;;;;;;5040737;28;20044;-69
2022/09/09 09:04:05;;;;;;;7.10;2.17;;;18.30;99.90;;;;;;5031908;28;20048;-68
2022/09/09 09:06:36;;;;;;;8.80;1.92;;;18.40;99.90;;;;;;5033863;28;20459;-68
2022/09/09 09:09:47;;;;;;;10.70;2.30;;;18.50;99.90;;;;;;5042512;28;20032;-68
2022/09/09 09:12:19;;;;;;;10.15;1.90;;;18.70;99.90;;;;;;5029683;28;20045;-67
2022/09/09 09:14:47;;;;;;;8.77;2.30;;;18.60;99.90;;;;;;5025344;28;20033;-67
2022/09/09 09:17:15;;;;;;;6.47;2.08;;;18.60;99.90;;;;;;5039835;28;20342;-66
2022/09/09 09:19:43;;;;;;;10.98;1.92;;;18.50;99.90;;;;;;5039215;28;20472;-67
2022/09/09 09:22:32;;;;;;;12.13;2.10;;;18.60;99.90;;;;;;5047594;28;20021;-66
2022/09/09 09:25:18;;;;;;;7.30;2.17;;;18.50;99.90;;;;;;5025691;28;20044;-68
2022/09/09 09:28:21;;;;;;;7.55;2.05;;;18.60;99.90;;;;;;5041006;28;20378;-67
2022/09/09 09:31:05;;;;;;;8.85;2.20;;;18.50;99.90;;;;;;5023365;28;20448;-66
2022/09/09 09:33:33;;;;;;;9.88;2.67;;;18.60;99.90;;;;;;5036539;28;20027;-67
2022/09/09 09:35:59;;;;;;;8.52;2.03;;;18.60;99.90;;;;;;5036999;28;20033;-67
2022/09/09 09:38:27;;;;;;;5.18;1.95;;;18.60;99.90;;;;;;5034138;28;20037;-67
2022/09/09 09:40:58;;;;;;;8.98;2.45;;;18.80;99.90;;;;;;5047644;28;20018;-69
2022/09/09 09:43:28;;;;;;;8.32;2.15;;;19.10;99.90;;;;;;5043862;28;20070;-68
2022/09/09 09:45:55;;;;;;;10.32;2.13;;;19.10;99.90;;;;;;5041535;28;20040;-68
2022/09/09 09:48:20;;;;;;;11.88;3.47;;;18.90;99.90;;;;;;5051759;28;20556;-69
2022/09/09 09:50:48;;;;;;;11.30;3.00;;;18.90;99.90;;;;;;5038466;28;20107;-69
2022/09/09 09:53:27;;;;;;;16.55;5.50;;;18.90;99.90;;;;;;5046580;28;20044;-68
2022/09/09 09:56:09;;;;;;;13.27;3.60;;;18.90;99.90;;;;;;5049032;28;20060;-68
2022/09/09 09:58:44;;;;;;;27.15;9.70;;;18.80;99.90;;;;;;5036101;28;20091;-71
2022/09/09 10:01:27;;;;;;;13.25;4.68;;;18.80;99.90;;;;;;5034561;28;20028;-68
2022/09/09 10:03:57;;;;;;;10.88;2.53;;;18.80;99.90;;;;;;5042176;28;20025;-68
2022/09/09 10:06:34;;;;;;;4.68;1.58;;;18.70;99.90;;;;;;5037610;28;20025;-68
2022/09/09 10:09:02;;;;;;;11.80;2.55;;;18.60;99.90;;;;;;5048301;28;20017;-68
2022/09/09 10:11:47;;;;;;;15.10;2.85;;;18.60;99.90;;;;;;5038073;28;20091;-69
2022/09/09 10:14:22;;;;;;;8.23;2.40;;;18.70;99.90;;;;;;5034505;28;20033;-68
2022/09/09 10:16:56;;;;;;;9.13;2.60;;;18.60;99.90;;;;;;5024154;28;20505;-68
2022/09/09 10:19:33;;;;;;;9.95;2.47;;;18.70;99.90;;;;;;5045191;28;20039;-68
2022/09/09 10:22:15;;;;;;;7.50;2.30;;;18.60;99.90;;;;;;5048876;28;20127;-67
2022/09/09 10:25:02;;;;;;;7.47;2.28;;;18.50;99.90;;;;;;5036675;28;20749;-67
2022/09/09 10:27:56;;;;;;;9.48;2.35;;;18.30;99.90;;;;;;5036050;28;20417;-68
2022/09/09 10:30:43;;;;;;;7.25;2.25;;;18.30;99.90;;;;;;5050458;28;20036;-68
2022/09/09 10:33:19;;;;;;;7.95;2.05;;;18.40;99.90;;;;;;5041498;28;20025;-67
2022/09/09 10:36:13;;;;;;;8.60;2.40;;;18.30;99.90;;;;;;5039272;28;20021;-67
2022/09/09 10:38:46;;;;;;;6.85;2.42;;;18.20;99.90;;;;;;5035058;28;20458;-67
2022/09/09 10:41:32;;;;;;;10.40;2.53;;;18.10;99.90;;;;;;5045806;28;20033;-67
2022/09/09 10:44:13;;;;;;;7.68;2.95;;;18.10;99.90;;;;;;5036325;28;20117;-68
2022/09/09 10:46:58;;;;;;;7.35;2.70;;;18.20;99.90;;;;;;5033889;28;20021;-67
2022/09/09 10:49:42;;;;;;;9.00;2.42;;;18.10;99.90;;;;;;5033875;28;20079;-68
2022/09/09 10:52:29;;;;;;;6.78;2.53;;;18.00;99.90;;;;;;5049380;28;20033;-67
2022/09/09 10:55:19;;;;;;;9.70;3.05;;;18.00;99.90;;;;;;5020319;28;20026;-67
2022/09/09 10:57:54;;;;;;;9.27;3.40;;;18.10;99.90;;;;;;5046004;28;20447;-66
2022/09/09 11:00:25;;;;;;;5.38;2.88;;;18.10;99.90;;;;;;5036668;28;20055;-67
2022/09/09 11:03:01;;;;;;;8.07;3.15;;;18.00;99.90;;;;;;5048563;28;20020;-66
2022/09/09 11:05:29;;;;;;;8.15;3.05;;;18.10;99.90;;;;;;5043442;28;20029;-67
2022/09/09 11:08:00;;;;;;;11.63;3.30;;;18.20;99.90;;;;;;5038361;28;20032;-68
2022/09/09 11:10:52;;;;;;;12.45;3.83;;;18.20;99.90;;;;;;5047286;28;20164;-67
2022/09/09 11:13:33;;;;;;;8.30;3.10;;;18.20;99.90;;;;;;5032467;28;20080;-66
2022/09/09 11:16:05;;;;;;;10.15;3.13;;;18.20;99.90;;;;;;5032478;28;20046;-67
2022/09/09 11:18:36;;;;;;;7.00;3.13;;;18.30;99.90;;;;;;5036430;28;20098;-68
2022/09/09 11:21:07;;;;;;;9.15;3.30;;;18.30;99.90;;;;;;5046406;28;20021;-67
2022/09/09 11:23:37;;;;;;;5.38;2.38;;;18.40;99.90;;;;;;5041730;28;20470;-68
2022/09/09 11:26:05;;;;;;;9.10;2.58;;;18.40;99.90;;;;;;5035218;28;20056;-68
2022/09/09 11:28:57;;;;;;;7.85;2.63;;;18.30;99.90;;;;;;5037420;28;20103;-69
2022/09/09 11:31:50;;;;;;;6.78;2.13;;;18.20;99.90;;;;;;5033651;28;20029;-68
2022/09/09 11:34:27;;;;;;;6.43;2.85;;;18.40;99.90;;;;;;5035891;28;20021;-67
2022/09/09 11:37:00;;;;;;;5.97;2.20;;;18.30;99.90;;;;;;5038541;28;20021;-68
2022/09/09 11:39:50;;;;;;;7.93;3.15;;;18.30;99.90;;;;;;5046439;28;20052;-67
2022/09/09 11:42:22;;;;;;;7.53;3.75;;;18.40;99.90;;;;;;5036190;28;20022;-68
2022/09/09 11:44:47;;;;;;;8.02;2.97;;;18.50;99.90;;;;;;5041630;28;20044;-68
2022/09/09 11:47:29;;;;;;;7.18;3.15;;;18.50;99.90;;;;;;5034323;28;20596;-67
2022/09/09 11:50:08;;;;;;;7.57;3.22;;;18.60;99.90;;;;;;5021554;28;20479;-68
2022/09/09 11:52:45;;;;;;;6.32;3.28;;;18.80;99.90;;;;;;5047813;28;20534;-68
2022/09/09 11:55:32;;;;;;;10.20;3.03;;;18.90;99.90;;;;;;5038448;28;20108;-67
2022/09/09 11:58:13;;;;;;;4.78;2.50;;;18.90;99.90;;;;;;5037385;28;20029;-68
2022/09/09 12:00:47;;;;;;;7.00;2.97;;;19.10;99.90;;;;;;5030471;28;20073;-67
2022/09/09 12:03:48;;;;;;;7.43;3.20;;;19.20;99.90;;;;;;5030713;28;20049;-66
2022/09/09 12:06:31;;;;;;;8.65;2.50;;;19.20;99.90;;;;;;5036572;28;20021;-66
2022/09/09 12:09:15;;;;;;;9.77;2.60;;;19.20;99.90;;;;;;5030772;28;20501;-66
2022/09/09 12:11:41;;;;;;;7.25;2.63;;;19.30;99.90;;;;;;5031806;28;20367;-66
2022/09/09 12:14:21;;;;;;;9.43;2.53;;;19.40;99.90;;;;;;5029634;28;20036;-69
2022/09/09 12:16:46;;;;;;;10.55;2.70;;;19.50;99.90;;;;;;5027057;28;20021;-66
2022/09/09 12:19:18;;;;;;;6.22;2.67;;;19.60;99.90;;;;;;5032531;28;20045;-66
2022/09/09 12:22:05;;;;;;;10.25;3.35;;;19.70;99.90;;;;;;5032555;28;20053;-67
2022/09/09 12:24:41;;;;;;;7.03;2.95;;;19.80;99.90;;;;;;5032282;28;20029;-67
2022/09/09 12:27:32;;;;;;;6.82;2.28;;;19.80;99.90;;;;;;5033116;28;20113;-66
2022/09/09 12:30:09;;;;;;;8.50;3.15;;;19.80;99.90;;;;;;5029220;28;20389;-67
2022/09/09 12:32:35;;;;;;;7.68;2.55;;;20.10;99.90;;;;;;5032272;28;20120;-67
2022/09/09 12:35:19;;;;;;;4.10;2.50;;;20.30;99.90;;;;;;5034098;28;20100;-69
2022/09/09 12:37:59;;;;;;;5.80;2.22;;;20.00;99.90;;;;;;5032003;28;20489;-73
2022/09/09 12:40:32;;;;;;;8.65;2.33;;;20.10;99.90;;;;;;5048040;28;20049;-72
2022/09/09 12:43:01;;;;;;;7.38;2.40;;;20.20;99.90;;;;;;5030039;28;20026;-72
2022/09/09 12:45:31;;;;;;;8.18;2.20;;;20.30;99.90;;;;;;5033080;28;20506;-70
2022/09/09 12:48:00;;;;;;;6.70;2.00;;;20.30;99.90;;;;;;5032086;28;20052;-72
2022/09/09 12:50:29;;;;;;;5.78;2.22;;;20.40;99.90;;;;;;5040454;28;20022;-68
2022/09/09 12:53:02;;;;;;;8.02;1.88;;;20.30;99.90;;;;;;5035844;28;20428;-66
2022/09/09 12:55:30;;;;;;;4.97;1.90;;;20.00;99.90;;;;;;5041118;28;20045;-72
2022/09/09 12:57:59;;;;;;;5.55;1.98;;;20.00;99.90;;;;;;5043995;28;20040;-72
2022/09/09 13:00:25;;;;;;;6.75;1.80;;;20.30;99.90;;;;;;5034932;28;20017;-73
2022/09/09 13:02:54;;;;;;;8.52;1.90;;;20.50;99.90;;;;;;5037041;28;20317;-71
2022/09/09 13:05:28;;;;;;;4.18;1.50;;;20.40;99.90;;;;;;5042387;28;20058;-71
2022/09/09 13:08:12;;;;;;;4.28;1.65;;;20.30;99.90;;;;;;5036819;28;20068;-71
2022/09/09 13:10:55;;;;;;;7.63;1.48;;;20.30;99.90;;;;;;5034111;28;20029;-71
2022/09/09 13:13:29;;;;;;;3.70;1.20;;;20.30;99.90;;;;;;5029728;28;20037;-67
2022/09/09 13:16:00;;;;;;;4.30;1.85;;;20.10;99.90;;;;;;5037357;28;20053;-67